sensor_id;sensor_type;location;lat;lon;timestamp;P1;durP1;ratioP1;P2;durP2;ratioP2
1412;SDS011;701;52.526;13.408;2023-02-28T00:00:16;8.55;;;2.58;;
1412;SDS011;701;52.526;13.408;2023-02-28T00:02:42;8.93;;;3.10;;
1412;SDS011;701;52.526;13.408;2023-02-28T00:05:10;7.22;;;2.40;;
1412;SDS011;701;52.526;13.408;2023-02-28T00:07:37;7.40;;;2.63;;
1412;SDS011;701;52.526;13.408;2023-02-28T00:10:06;9.13;;;3.10;;
1412;SDS011;701;52.526;13.408;2023-02-28T00:12:33;8.68;;;3.00;;
1412;SDS011;701;52.526;13.408;2023-02-28T00:15:00;9.20;;;3.13;;
1412;SDS011;701;52.526;13.408;2023-02-28T00:17:26;8.82;;;3.00;;
1412;SDS011;701;52.526;13.408;2023-02-28T00:19:52;6.50;;;2.80;;
1412;SDS011;701;52.526;13.408;2023-02-28T00:22:18;9.00;;;3.00;;
1412;SDS011;701;52.526;13.408;2023-02-28T00:24:45;7.85;;;2.83;;
1412;SDS011;701;52.526;13.408;2023-02-28T00:27:12;10.83;;;3.00;;
1412;SDS011;701;52.526;13.408;2023-02-28T00:29:39;6.82;;;3.00;;
1412;SDS011;701;52.526;13.408;2023-02-28T00:32:05;10.95;;;3.30;;
1412;SDS011;701;52.526;13.408;2023-02-28T00:34:31;9.05;;;3.50;;
1412;SDS011;701;52.526;13.408;2023-02-28T00:37:06;10.43;;;3.10;;
1412;SDS011;701;52.526;13.408;2023-02-28T00:39:34;11.03;;;3.10;;
1412;SDS011;701;52.526;13.408;2023-02-28T00:42:01;8.18;;;2.83;;
1412;SDS011;701;52.526;13.408;2023-02-28T00:44:28;8.57;;;3.08;;
1412;SDS011;701;52.526;13.408;2023-02-28T00:46:54;8.25;;;3.25;;
1412;SDS011;701;52.526;13.408;2023-02-28T00:49:23;9.73;;;2.88;;
1412;SDS011;701;52.526;13.408;2023-02-28T00:51:49;10.70;;;3.30;;
1412;SDS011;701;52.526;13.408;2023-02-28T00:54:15;7.88;;;3.10;;
1412;SDS011;701;52.526;13.408;2023-02-28T00:56:42;10.27;;;3.25;;
1412;SDS011;701;52.526;13.408;2023-02-28T00:59:07;8.77;;;3.00;;
1412;SDS011;701;52.526;13.408;2023-02-28T01:01:34;9.73;;;3.07;;
1412;SDS011;701;52.526;13.408;2023-02-28T01:04:00;10.98;;;3.08;;
1412;SDS011;701;52.526;13.408;2023-02-28T01:06:25;7.30;;;3.10;;
1412;SDS011;701;52.526;13.408;2023-02-28T01:08:51;7.70;;;2.77;;
1412;SDS011;701;52.526;13.408;2023-02-28T01:11:17;8.50;;;3.50;;
1412;SDS011;701;52.526;13.408;2023-02-28T01:13:44;8.23;;;2.92;;
1412;SDS011;701;52.526;13.408;2023-02-28T01:16:11;11.97;;;3.03;;
1412;SDS011;701;52.526;13.408;2023-02-28T01:18:37;9.20;;;3.05;;
1412;SDS011;701;52.526;13.408;2023-02-28T01:21:06;9.95;;;3.55;;
1412;SDS011;701;52.526;13.408;2023-02-28T01:23:34;9.15;;;3.30;;
1412;SDS011;701;52.526;13.408;2023-02-28T01:26:05;9.57;;;3.40;;
1412;SDS011;701;52.526;13.408;2023-02-28T01:28:33;11.23;;;3.65;;
1412;SDS011;701;52.526;13.408;2023-02-28T01:30:58;8.63;;;3.33;;
1412;SDS011;701;52.526;13.408;2023-02-28T01:33:25;11.73;;;3.85;;
1412;SDS011;701;52.526;13.408;2023-02-28T01:36:02;10.07;;;3.37;;
1412;SDS011;701;52.526;13.408;2023-02-28T01:38:29;10.90;;;3.30;;
1412;SDS011;701;52.526;13.408;2023-02-28T01:40:56;10.63;;;3.55;;
1412;SDS011;701;52.526;13.408;2023-02-28T01:43:35;11.32;;;3.67;;
1412;SDS011;701;52.526;13.408;2023-02-28T01:46:18;8.40;;;3.38;;
1412;SDS011;701;52.526;13.408;2023-02-28T01:48:46;8.67;;;3.50;;
1412;SDS011;701;52.526;13.408;2023-02-28T01:51:18;10.48;;;3.13;;
1412;SDS011;701;52.526;13.408;2023-02-28T01:53:52;8.80;;;3.50;;
1412;SDS011;701;52.526;13.408;2023-02-28T01:56:22;8.95;;;3.30;;
1412;SDS011;701;52.526;13.408;2023-02-28T01:58:51;8.52;;;3.40;;
1412;SDS011;701;52.526;13.408;2023-02-28T02:01:19;10.67;;;3.40;;
1412;SDS011;701;52.526;13.408;2023-02-28T02:04:04;10.63;;;3.90;;
1412;SDS011;701;52.526;13.408;2023-02-28T02:06:33;11.32;;;3.83;;
1412;SDS011;701;52.526;13.408;2023-02-28T02:09:07;11.63;;;3.92;;
1412;SDS011;701;52.526;13.408;2023-02-28T02:11:33;11.05;;;3.65;;
1412;SDS011;701;52.526;13.408;2023-02-28T02:14:12;9.90;;;3.70;;
1412;SDS011;701;52.526;13.408;2023-02-28T02:22:19;11.52;;;3.70;;
1412;SDS011;701;52.526;13.408;2023-02-28T02:25:50;13.38;;;3.90;;
1412;SDS011;701;52.526;13.408;2023-02-28T02:34:28;12.05;;;3.65;;
1412;SDS011;701;52.526;13.408;2023-02-28T02:37:00;10.02;;;3.50;;
1412;SDS011;701;52.526;13.408;2023-02-28T02:42:38;8.13;;;3.43;;
1412;SDS011;701;52.526;13.408;2023-02-28T02:45:31;11.57;;;3.83;;
1412;SDS011;701;52.526;13.408;2023-02-28T02:48:08;11.38;;;4.30;;
1412;SDS011;701;52.526;13.408;2023-02-28T02:50:39;11.90;;;4.15;;
1412;SDS011;701;52.526;13.408;2023-02-28T02:53:30;12.85;;;4.28;;
1412;SDS011;701;52.526;13.408;2023-02-28T02:56:01;9.63;;;3.83;;
1412;SDS011;701;52.526;13.408;2023-02-28T02:58:32;10.15;;;4.05;;
1412;SDS011;701;52.526;13.408;2023-02-28T03:01:07;11.45;;;4.05;;
1412;SDS011;701;52.526;13.408;2023-02-28T03:03:35;10.82;;;4.25;;
1412;SDS011;701;52.526;13.408;2023-02-28T03:06:02;15.10;;;4.55;;
1412;SDS011;701;52.526;13.408;2023-02-28T03:08:29;11.73;;;4.63;;
1412;SDS011;701;52.526;13.408;2023-02-28T03:10:59;10.80;;;4.53;;
1412;SDS011;701;52.526;13.408;2023-02-28T03:30:29;14.07;;;4.50;;
1412;SDS011;701;52.526;13.408;2023-02-28T03:33:14;9.77;;;4.10;;
1412;SDS011;701;52.526;13.408;2023-02-28T03:35:54;10.90;;;4.23;;
1412;SDS011;701;52.526;13.408;2023-02-28T03:38:29;17.88;;;4.78;;
1412;SDS011;701;52.526;13.408;2023-02-28T03:40:58;10.20;;;4.13;;
1412;SDS011;701;52.526;13.408;2023-02-28T03:43:32;12.70;;;4.65;;
1412;SDS011;701;52.526;13.408;2023-02-28T03:46:05;12.57;;;4.70;;
1412;SDS011;701;52.526;13.408;2023-02-28T03:48:38;12.23;;;5.20;;
1412;SDS011;701;52.526;13.408;2023-02-28T03:51:35;14.65;;;5.18;;
1412;SDS011;701;52.526;13.408;2023-02-28T03:54:10;12.32;;;4.53;;
1412;SDS011;701;52.526;13.408;2023-02-28T03:56:43;13.00;;;4.93;;
1412;SDS011;701;52.526;13.408;2023-02-28T04:01:52;13.30;;;4.40;;
1412;SDS011;701;52.526;13.408;2023-02-28T04:04:20;10.70;;;4.57;;
1412;SDS011;701;52.526;13.408;2023-02-28T04:06:46;12.18;;;4.80;;
1412;SDS011;701;52.526;13.408;2023-02-28T04:09:25;12.77;;;4.78;;
1412;SDS011;701;52.526;13.408;2023-02-28T04:11:51;14.90;;;4.53;;
1412;SDS011;701;52.526;13.408;2023-02-28T04:14:18;16.00;;;4.70;;
1412;SDS011;701;52.526;13.408;2023-02-28T04:16:44;11.07;;;4.55;;
1412;SDS011;701;52.526;13.408;2023-02-28T04:19:11;11.48;;;4.88;;
1412;SDS011;701;52.526;13.408;2023-02-28T04:21:39;12.53;;;4.50;;
1412;SDS011;701;52.526;13.408;2023-02-28T04:24:10;9.73;;;4.10;;
1412;SDS011;701;52.526;13.408;2023-02-28T04:26:40;9.02;;;3.92;;
1412;SDS011;701;52.526;13.408;2023-02-28T04:29:20;12.10;;;5.07;;
1412;SDS011;701;52.526;13.408;2023-02-28T04:31:47;13.52;;;4.50;;
1412;SDS011;701;52.526;13.408;2023-02-28T04:34:13;11.00;;;4.60;;
1412;SDS011;701;52.526;13.408;2023-02-28T04:36:38;16.33;;;4.88;;
1412;SDS011;701;52.526;13.408;2023-02-28T04:39:04;11.10;;;4.67;;
1412;SDS011;701;52.526;13.408;2023-02-28T04:41:30;11.40;;;4.75;;
1412;SDS011;701;52.526;13.408;2023-02-28T04:43:56;12.80;;;5.30;;
1412;SDS011;701;52.526;13.408;2023-02-28T04:46:22;14.03;;;4.60;;
1412;SDS011;701;52.526;13.408;2023-02-28T04:48:48;13.95;;;4.40;;
1412;SDS011;701;52.526;13.408;2023-02-28T04:51:15;12.88;;;4.47;;
1412;SDS011;701;52.526;13.408;2023-02-28T04:53:41;10.13;;;3.97;;
1412;SDS011;701;52.526;13.408;2023-02-28T04:56:08;11.00;;;4.70;;
1412;SDS011;701;52.526;13.408;2023-02-28T04:58:37;12.60;;;4.90;;
1412;SDS011;701;52.526;13.408;2023-02-28T05:01:05;13.60;;;4.32;;
1412;SDS011;701;52.526;13.408;2023-02-28T05:03:53;10.43;;;4.18;;
1412;SDS011;701;52.526;13.408;2023-02-28T05:06:20;12.37;;;4.50;;
1412;SDS011;701;52.526;13.408;2023-02-28T05:08:46;12.50;;;5.20;;
1412;SDS011;701;52.526;13.408;2023-02-28T05:11:17;12.90;;;4.72;;
1412;SDS011;701;52.526;13.408;2023-02-28T05:13:47;9.82;;;4.38;;
1412;SDS011;701;52.526;13.408;2023-02-28T05:16:13;14.02;;;4.82;;
1412;SDS011;701;52.526;13.408;2023-02-28T05:18:39;9.97;;;4.10;;
1412;SDS011;701;52.526;13.408;2023-02-28T05:21:05;10.98;;;4.82;;
1412;SDS011;701;52.526;13.408;2023-02-28T05:23:32;11.32;;;4.88;;
1412;SDS011;701;52.526;13.408;2023-02-28T05:25:58;16.57;;;5.47;;
1412;SDS011;701;52.526;13.408;2023-02-28T05:28:24;14.02;;;5.03;;
1412;SDS011;701;52.526;13.408;2023-02-28T05:30:50;12.98;;;5.10;;
1412;SDS011;701;52.526;13.408;2023-02-28T05:33:15;14.97;;;6.00;;
1412;SDS011;701;52.526;13.408;2023-02-28T05:35:41;15.93;;;5.75;;
1412;SDS011;701;52.526;13.408;2023-02-28T05:38:10;12.50;;;5.37;;
1412;SDS011;701;52.526;13.408;2023-02-28T05:40:37;13.63;;;5.40;;
1412;SDS011;701;52.526;13.408;2023-02-28T05:43:05;14.30;;;5.45;;
1412;SDS011;701;52.526;13.408;2023-02-28T05:45:31;16.77;;;5.40;;
1412;SDS011;701;52.526;13.408;2023-02-28T05:47:56;16.55;;;5.68;;
1412;SDS011;701;52.526;13.408;2023-02-28T05:50:22;16.43;;;6.00;;
1412;SDS011;701;52.526;13.408;2023-02-28T05:52:51;14.20;;;6.15;;
1412;SDS011;701;52.526;13.408;2023-02-28T05:55:17;12.93;;;5.70;;
1412;SDS011;701;52.526;13.408;2023-02-28T05:57:43;15.15;;;6.00;;
1412;SDS011;701;52.526;13.408;2023-02-28T06:00:09;14.13;;;5.55;;
1412;SDS011;701;52.526;13.408;2023-02-28T06:02:39;13.60;;;5.80;;
1412;SDS011;701;52.526;13.408;2023-02-28T06:05:13;14.37;;;5.17;;
1412;SDS011;701;52.526;13.408;2023-02-28T06:07:41;17.10;;;5.65;;
1412;SDS011;701;52.526;13.408;2023-02-28T06:10:07;13.40;;;5.10;;
1412;SDS011;701;52.526;13.408;2023-02-28T06:12:34;13.27;;;5.93;;
1412;SDS011;701;52.526;13.408;2023-02-28T06:15:00;17.00;;;5.87;;
1412;SDS011;701;52.526;13.408;2023-02-28T06:17:26;14.10;;;5.70;;
1412;SDS011;701;52.526;13.408;2023-02-28T06:19:52;15.38;;;5.93;;
1412;SDS011;701;52.526;13.408;2023-02-28T06:22:18;12.70;;;5.53;;
1412;SDS011;701;52.526;13.408;2023-02-28T06:24:43;13.93;;;5.82;;
1412;SDS011;701;52.526;13.408;2023-02-28T06:27:09;13.87;;;6.00;;
1412;SDS011;701;52.526;13.408;2023-02-28T06:29:35;13.27;;;5.70;;
1412;SDS011;701;52.526;13.408;2023-02-28T06:32:05;13.07;;;5.57;;
1412;SDS011;701;52.526;13.408;2023-02-28T06:34:31;16.17;;;5.57;;
1412;SDS011;701;52.526;13.408;2023-02-28T06:36:58;16.87;;;5.97;;
1412;SDS011;701;52.526;13.408;2023-02-28T06:39:27;13.60;;;5.55;;
1412;SDS011;701;52.526;13.408;2023-02-28T06:41:54;21.65;;;7.85;;
1412;SDS011;701;52.526;13.408;2023-02-28T06:44:20;14.03;;;5.60;;
1412;SDS011;701;52.526;13.408;2023-02-28T06:46:46;16.17;;;5.60;;
1412;SDS011;701;52.526;13.408;2023-02-28T06:49:12;13.43;;;5.50;;
1412;SDS011;701;52.526;13.408;2023-02-28T06:51:41;13.63;;;5.88;;
1412;SDS011;701;52.526;13.408;2023-02-28T06:54:11;12.27;;;5.30;;
1412;SDS011;701;52.526;13.408;2023-02-28T06:56:38;13.20;;;5.75;;
1412;SDS011;701;52.526;13.408;2023-02-28T06:59:04;15.10;;;6.03;;
1412;SDS011;701;52.526;13.408;2023-02-28T07:01:30;17.30;;;5.93;;
1412;SDS011;701;52.526;13.408;2023-02-28T07:03:57;12.43;;;4.97;;
1412;SDS011;701;52.526;13.408;2023-02-28T07:06:25;12.18;;;4.75;;
1412;SDS011;701;52.526;13.408;2023-02-28T07:08:52;14.85;;;4.93;;
1412;SDS011;701;52.526;13.408;2023-02-28T07:11:22;11.90;;;5.22;;
1412;SDS011;701;52.526;13.408;2023-02-28T07:13:52;13.90;;;5.05;;
1412;SDS011;701;52.526;13.408;2023-02-28T07:16:19;12.23;;;4.93;;
1412;SDS011;701;52.526;13.408;2023-02-28T07:18:45;14.90;;;5.30;;
1412;SDS011;701;52.526;13.408;2023-02-28T07:21:11;14.98;;;4.57;;
1412;SDS011;701;52.526;13.408;2023-02-28T07:23:37;13.03;;;4.53;;
1412;SDS011;701;52.526;13.408;2023-02-28T07:26:03;18.73;;;7.18;;
1412;SDS011;701;52.526;13.408;2023-02-28T07:28:36;11.32;;;5.00;;
1412;SDS011;701;52.526;13.408;2023-02-28T07:31:06;10.20;;;4.10;;
1412;SDS011;701;52.526;13.408;2023-02-28T07:33:34;12.90;;;4.65;;
1412;SDS011;701;52.526;13.408;2023-02-28T07:36:04;15.57;;;5.20;;
1412;SDS011;701;52.526;13.408;2023-02-28T07:38:39;10.32;;;4.38;;
1412;SDS011;701;52.526;13.408;2023-02-28T07:41:04;10.50;;;4.50;;
1412;SDS011;701;52.526;13.408;2023-02-28T07:43:31;11.85;;;3.75;;
1412;SDS011;701;52.526;13.408;2023-02-28T07:46:05;9.13;;;3.53;;
1412;SDS011;701;52.526;13.408;2023-02-28T07:48:36;9.25;;;3.90;;
1412;SDS011;701;52.526;13.408;2023-02-28T07:51:01;13.18;;;3.60;;
1412;SDS011;701;52.526;13.408;2023-02-28T07:53:28;10.05;;;3.85;;
1412;SDS011;701;52.526;13.408;2023-02-28T07:55:55;11.57;;;4.13;;
1412;SDS011;701;52.526;13.408;2023-02-28T07:58:21;10.63;;;3.53;;
1412;SDS011;701;52.526;13.408;2023-02-28T08:00:48;10.38;;;4.43;;
1412;SDS011;701;52.526;13.408;2023-02-28T08:03:13;11.48;;;4.60;;
1412;SDS011;701;52.526;13.408;2023-02-28T08:05:39;9.53;;;3.93;;
1412;SDS011;701;52.526;13.408;2023-02-28T08:08:06;14.30;;;4.07;;
1412;SDS011;701;52.526;13.408;2023-02-28T08:10:32;11.02;;;3.47;;
1412;SDS011;701;52.526;13.408;2023-02-28T08:12:58;13.57;;;4.25;;
1412;SDS011;701;52.526;13.408;2023-02-28T08:15:25;10.67;;;3.67;;
1412;SDS011;701;52.526;13.408;2023-02-28T08:17:50;11.80;;;4.47;;
1412;SDS011;701;52.526;13.408;2023-02-28T08:20:16;12.32;;;4.30;;
1412;SDS011;701;52.526;13.408;2023-02-28T08:22:42;14.73;;;3.97;;
1412;SDS011;701;52.526;13.408;2023-02-28T08:25:08;10.73;;;4.38;;
1412;SDS011;701;52.526;13.408;2023-02-28T08:27:34;11.07;;;3.73;;
1412;SDS011;701;52.526;13.408;2023-02-28T08:30:00;11.93;;;4.10;;
1412;SDS011;701;52.526;13.408;2023-02-28T08:32:26;12.23;;;3.90;;
1412;SDS011;701;52.526;13.408;2023-02-28T08:34:52;11.00;;;3.00;;
1412;SDS011;701;52.526;13.408;2023-02-28T08:37:18;7.07;;;2.35;;
1412;SDS011;701;52.526;13.408;2023-02-28T08:39:44;6.82;;;2.70;;
1412;SDS011;701;52.526;13.408;2023-02-28T08:42:10;9.67;;;3.00;;
1412;SDS011;701;52.526;13.408;2023-02-28T08:44:35;9.68;;;3.17;;
1412;SDS011;701;52.526;13.408;2023-02-28T08:47:01;8.67;;;3.20;;
1412;SDS011;701;52.526;13.408;2023-02-28T08:49:27;9.95;;;3.33;;
1412;SDS011;701;52.526;13.408;2023-02-28T08:51:53;8.77;;;2.90;;
1412;SDS011;701;52.526;13.408;2023-02-28T08:54:20;6.40;;;2.40;;
1412;SDS011;701;52.526;13.408;2023-02-28T08:56:48;8.82;;;2.40;;
1412;SDS011;701;52.526;13.408;2023-02-28T08:59:13;6.57;;;2.13;;
1412;SDS011;701;52.526;13.408;2023-02-28T09:01:39;5.03;;;2.00;;
1412;SDS011;701;52.526;13.408;2023-02-28T09:04:06;8.18;;;1.95;;
1412;SDS011;701;52.526;13.408;2023-02-28T09:06:33;9.05;;;2.20;;
1412;SDS011;701;52.526;13.408;2023-02-28T09:08:59;7.50;;;2.38;;
1412;SDS011;701;52.526;13.408;2023-02-28T09:11:27;7.75;;;2.38;;
1412;SDS011;701;52.526;13.408;2023-02-28T09:13:53;7.83;;;2.13;;
1412;SDS011;701;52.526;13.408;2023-02-28T09:16:20;8.40;;;1.88;;
1412;SDS011;701;52.526;13.408;2023-02-28T09:18:47;11.63;;;2.17;;
1412;SDS011;701;52.526;13.408;2023-02-28T09:21:16;7.07;;;2.20;;
1412;SDS011;701;52.526;13.408;2023-02-28T09:23:44;5.65;;;2.15;;
1412;SDS011;701;52.526;13.408;2023-02-28T09:26:18;10.37;;;4.07;;
1412;SDS011;701;52.526;13.408;2023-02-28T09:28:47;9.90;;;2.17;;
1412;SDS011;701;52.526;13.408;2023-02-28T09:31:14;6.65;;;2.72;;
1412;SDS011;701;52.526;13.408;2023-02-28T09:33:41;7.82;;;2.30;;
1412;SDS011;701;52.526;13.408;2023-02-28T09:36:08;6.40;;;1.70;;
1412;SDS011;701;52.526;13.408;2023-02-28T09:38:34;6.43;;;1.70;;
1412;SDS011;701;52.526;13.408;2023-02-28T09:41:01;5.10;;;1.85;;
1412;SDS011;701;52.526;13.408;2023-02-28T09:43:32;6.25;;;1.80;;
1412;SDS011;701;52.526;13.408;2023-02-28T09:48:59;5.65;;;1.60;;
1412;SDS011;701;52.526;13.408;2023-02-28T09:52:17;6.88;;;2.25;;
1412;SDS011;701;52.526;13.408;2023-02-28T09:54:44;11.27;;;2.95;;
1412;SDS011;701;52.526;13.408;2023-02-28T10:00:07;6.20;;;2.27;;
1412;SDS011;701;52.526;13.408;2023-02-28T10:05:14;10.57;;;2.67;;
1412;SDS011;701;52.526;13.408;2023-02-28T10:10:40;6.10;;;1.83;;
1412;SDS011;701;52.526;13.408;2023-02-28T10:15:54;7.57;;;2.20;;
1412;SDS011;701;52.526;13.408;2023-02-28T10:18:24;5.90;;;1.90;;
1412;SDS011;701;52.526;13.408;2023-02-28T10:20:54;6.63;;;2.47;;
1412;SDS011;701;52.526;13.408;2023-02-28T10:23:23;10.18;;;2.40;;
1412;SDS011;701;52.526;13.408;2023-02-28T10:26:00;6.77;;;2.43;;
1412;SDS011;701;52.526;13.408;2023-02-28T10:28:35;12.75;;;5.90;;
1412;SDS011;701;52.526;13.408;2023-02-28T10:31:01;8.75;;;2.63;;
1412;SDS011;701;52.526;13.408;2023-02-28T10:35:56;7.03;;;2.30;;
1412;SDS011;701;52.526;13.408;2023-02-28T10:38:28;6.03;;;2.08;;
1412;SDS011;701;52.526;13.408;2023-02-28T10:43:31;6.60;;;2.03;;
1412;SDS011;701;52.526;13.408;2023-02-28T10:48:36;9.15;;;3.38;;
1412;SDS011;701;52.526;13.408;2023-02-28T10:51:04;5.50;;;2.03;;
1412;SDS011;701;52.526;13.408;2023-02-28T10:53:33;5.45;;;1.70;;
1412;SDS011;701;52.526;13.408;2023-02-28T10:58:53;6.18;;;2.20;;
1412;SDS011;701;52.526;13.408;2023-02-28T11:01:22;5.38;;;1.95;;
1412;SDS011;701;52.526;13.408;2023-02-28T11:03:57;7.03;;;2.20;;
1412;SDS011;701;52.526;13.408;2023-02-28T11:06:25;9.63;;;2.30;;
1412;SDS011;701;52.526;13.408;2023-02-28T11:08:56;7.10;;;2.15;;
1412;SDS011;701;52.526;13.408;2023-02-28T11:11:41;5.60;;;1.90;;
1412;SDS011;701;52.526;13.408;2023-02-28T11:14:17;6.78;;;2.38;;
1412;SDS011;701;52.526;13.408;2023-02-28T11:16:47;6.15;;;2.22;;
1412;SDS011;701;52.526;13.408;2023-02-28T11:19:25;6.90;;;2.40;;
1412;SDS011;701;52.526;13.408;2023-02-28T11:21:58;7.10;;;1.98;;
1412;SDS011;701;52.526;13.408;2023-02-28T11:26:59;9.48;;;2.30;;
1412;SDS011;701;52.526;13.408;2023-02-28T11:29:27;7.00;;;2.40;;
1412;SDS011;701;52.526;13.408;2023-02-28T11:32:05;6.27;;;2.10;;
1412;SDS011;701;52.526;13.408;2023-02-28T11:34:34;7.05;;;2.30;;
1412;SDS011;701;52.526;13.408;2023-02-28T11:37:02;8.40;;;2.35;;
1412;SDS011;701;52.526;13.408;2023-02-28T11:39:34;6.80;;;2.25;;
1412;SDS011;701;52.526;13.408;2023-02-28T12:07:31;10.05;;;3.20;;
1412;SDS011;701;52.526;13.408;2023-02-28T12:10:20;8.85;;;2.58;;
1412;SDS011;701;52.526;13.408;2023-02-28T12:27:29;7.83;;;2.40;;
1412;SDS011;701;52.526;13.408;2023-02-28T12:30:04;9.00;;;2.72;;
1412;SDS011;701;52.526;13.408;2023-02-28T12:32:47;7.68;;;3.03;;
1412;SDS011;701;52.526;13.408;2023-02-28T12:35:19;7.22;;;2.60;;
1412;SDS011;701;52.526;13.408;2023-02-28T12:40:26;8.03;;;2.60;;
1412;SDS011;701;52.526;13.408;2023-02-28T12:43:14;8.82;;;3.00;;
1412;SDS011;701;52.526;13.408;2023-02-28T12:45:48;7.18;;;2.60;;
1412;SDS011;701;52.526;13.408;2023-02-28T12:48:41;7.93;;;2.70;;
1412;SDS011;701;52.526;13.408;2023-02-28T12:51:11;7.72;;;2.65;;
1412;SDS011;701;52.526;13.408;2023-02-28T12:53:45;7.70;;;2.60;;
1412;SDS011;701;52.526;13.408;2023-02-28T13:01:52;6.38;;;2.50;;
1412;SDS011;701;52.526;13.408;2023-02-28T13:07:13;10.07;;;4.13;;
1412;SDS011;701;52.526;13.408;2023-02-28T13:09:52;6.53;;;2.40;;
1412;SDS011;701;52.526;13.408;2023-02-28T13:12:20;5.65;;;2.45;;
1412;SDS011;701;52.526;13.408;2023-02-28T13:14:48;7.88;;;2.35;;
1412;SDS011;701;52.526;13.408;2023-02-28T13:17:18;6.30;;;2.47;;
1412;SDS011;701;52.526;13.408;2023-02-28T13:19:46;7.43;;;2.40;;
1412;SDS011;701;52.526;13.408;2023-02-28T13:24:53;6.60;;;2.47;;
1412;SDS011;701;52.526;13.408;2023-02-28T13:29:56;8.30;;;2.80;;
1412;SDS011;701;52.526;13.408;2023-02-28T13:39:55;8.23;;;2.38;;
1412;SDS011;701;52.526;13.408;2023-02-28T13:47:39;10.18;;;2.80;;
1412;SDS011;701;52.526;13.408;2023-02-28T13:53:20;8.02;;;3.05;;
1412;SDS011;701;52.526;13.408;2023-02-28T13:59:26;6.72;;;2.35;;
1412;SDS011;701;52.526;13.408;2023-02-28T14:05:04;20.70;;;8.60;;
1412;SDS011;701;52.526;13.408;2023-02-28T14:07:38;9.27;;;3.60;;
1412;SDS011;701;52.526;13.408;2023-02-28T14:10:27;8.43;;;2.63;;
1412;SDS011;701;52.526;13.408;2023-02-28T14:15:59;6.55;;;2.30;;
1412;SDS011;701;52.526;13.408;2023-02-28T14:18:28;7.60;;;2.33;;
1412;SDS011;701;52.526;13.408;2023-02-28T14:20:57;6.60;;;2.28;;
1412;SDS011;701;52.526;13.408;2023-02-28T14:38:01;12.57;;;3.20;;
1412;SDS011;701;52.526;13.408;2023-02-28T14:40:33;5.65;;;2.40;;
1412;SDS011;701;52.526;13.408;2023-02-28T14:43:01;7.22;;;2.65;;
1412;SDS011;701;52.526;13.408;2023-02-28T14:45:29;7.57;;;2.50;;
1412;SDS011;701;52.526;13.408;2023-02-28T14:47:57;7.90;;;2.05;;
1412;SDS011;701;52.526;13.408;2023-02-28T14:50:27;6.80;;;2.83;;
1412;SDS011;701;52.526;13.408;2023-02-28T14:53:00;7.30;;;2.70;;
1412;SDS011;701;52.526;13.408;2023-02-28T14:55:34;7.07;;;2.35;;
1412;SDS011;701;52.526;13.408;2023-02-28T14:58:01;5.65;;;2.17;;
1412;SDS011;701;52.526;13.408;2023-02-28T15:00:30;7.13;;;2.60;;
1412;SDS011;701;52.526;13.408;2023-02-28T15:02:57;7.03;;;2.63;;
1412;SDS011;701;52.526;13.408;2023-02-28T15:08:09;6.03;;;2.55;;
1412;SDS011;701;52.526;13.408;2023-02-28T15:10:39;8.60;;;2.50;;
1412;SDS011;701;52.526;13.408;2023-02-28T15:13:13;7.32;;;2.88;;
1412;SDS011;701;52.526;13.408;2023-02-28T15:18:27;7.47;;;2.67;;
1412;SDS011;701;52.526;13.408;2023-02-28T15:21:02;10.73;;;2.83;;
1412;SDS011;701;52.526;13.408;2023-02-28T15:23:31;10.77;;;2.90;;
1412;SDS011;701;52.526;13.408;2023-02-28T15:25:59;11.15;;;2.80;;
1412;SDS011;701;52.526;13.408;2023-02-28T15:28:25;9.03;;;2.77;;
1412;SDS011;701;52.526;13.408;2023-02-28T15:30:56;6.93;;;2.45;;
1412;SDS011;701;52.526;13.408;2023-02-28T15:33:25;7.57;;;2.33;;
1412;SDS011;701;52.526;13.408;2023-02-28T15:36:14;8.18;;;3.22;;
1412;SDS011;701;52.526;13.408;2023-02-28T15:38:42;6.03;;;2.58;;
1412;SDS011;701;52.526;13.408;2023-02-28T15:41:25;8.70;;;2.60;;
1412;SDS011;701;52.526;13.408;2023-02-28T15:46:40;7.68;;;3.03;;
1412;SDS011;701;52.526;13.408;2023-02-28T15:49:17;7.07;;;2.90;;
1412;SDS011;701;52.526;13.408;2023-02-28T15:51:45;8.25;;;3.00;;
1412;SDS011;701;52.526;13.408;2023-02-28T15:54:21;12.83;;;5.40;;
1412;SDS011;701;52.526;13.408;2023-02-28T15:56:51;10.98;;;2.80;;
1412;SDS011;701;52.526;13.408;2023-02-28T15:59:18;7.72;;;2.60;;
1412;SDS011;701;52.526;13.408;2023-02-28T16:01:46;7.53;;;2.92;;
1412;SDS011;701;52.526;13.408;2023-02-28T16:04:14;8.80;;;2.80;;
1412;SDS011;701;52.526;13.408;2023-02-28T16:09:23;9.02;;;3.40;;
1412;SDS011;701;52.526;13.408;2023-02-28T16:11:50;8.45;;;3.40;;
1412;SDS011;701;52.526;13.408;2023-02-28T16:14:24;11.05;;;3.47;;
1412;SDS011;701;52.526;13.408;2023-02-28T16:16:54;9.88;;;3.25;;
1412;SDS011;701;52.526;13.408;2023-02-28T16:19:21;9.30;;;3.40;;
1412;SDS011;701;52.526;13.408;2023-02-28T16:21:47;10.20;;;3.63;;
1412;SDS011;701;52.526;13.408;2023-02-28T16:24:13;8.02;;;2.80;;
1412;SDS011;701;52.526;13.408;2023-02-28T16:26:39;8.10;;;2.92;;
1412;SDS011;701;52.526;13.408;2023-02-28T16:29:08;9.37;;;2.80;;
1412;SDS011;701;52.526;13.408;2023-02-28T16:31:38;6.90;;;3.20;;
1412;SDS011;701;52.526;13.408;2023-02-28T16:34:04;7.32;;;3.20;;
1412;SDS011;701;52.526;13.408;2023-02-28T16:36:31;10.43;;;3.17;;
1412;SDS011;701;52.526;13.408;2023-02-28T16:38:56;8.25;;;2.70;;
1412;SDS011;701;52.526;13.408;2023-02-28T16:41:26;10.15;;;3.35;;
1412;SDS011;701;52.526;13.408;2023-02-28T16:43:54;8.23;;;3.45;;
1412;SDS011;701;52.526;13.408;2023-02-28T16:46:27;8.93;;;3.77;;
1412;SDS011;701;52.526;13.408;2023-02-28T16:48:56;10.25;;;4.47;;
1412;SDS011;701;52.526;13.408;2023-02-28T16:51:22;14.30;;;5.95;;
1412;SDS011;701;52.526;13.408;2023-02-28T16:53:48;26.63;;;9.97;;
1412;SDS011;701;52.526;13.408;2023-02-28T16:56:23;11.27;;;3.50;;
1412;SDS011;701;52.526;13.408;2023-02-28T16:58:50;11.50;;;2.95;;
1412;SDS011;701;52.526;13.408;2023-02-28T17:01:17;7.07;;;2.87;;
1412;SDS011;701;52.526;13.408;2023-02-28T17:03:47;9.25;;;3.88;;
1412;SDS011;701;52.526;13.408;2023-02-28T17:06:23;7.28;;;2.97;;
1412;SDS011;701;52.526;13.408;2023-02-28T17:08:52;9.18;;;3.13;;
1412;SDS011;701;52.526;13.408;2023-02-28T17:11:19;10.25;;;3.60;;
1412;SDS011;701;52.526;13.408;2023-02-28T17:13:45;11.97;;;4.53;;
1412;SDS011;701;52.526;13.408;2023-02-28T17:16:45;13.75;;;5.95;;
1412;SDS011;701;52.526;13.408;2023-02-28T17:19:13;10.00;;;3.58;;
1412;SDS011;701;52.526;13.408;2023-02-28T17:21:41;10.95;;;3.83;;
1412;SDS011;701;52.526;13.408;2023-02-28T17:24:07;8.55;;;3.50;;
1412;SDS011;701;52.526;13.408;2023-02-28T17:26:33;8.20;;;3.40;;
1412;SDS011;701;52.526;13.408;2023-02-28T17:29:00;9.05;;;3.38;;
1412;SDS011;701;52.526;13.408;2023-02-28T17:31:26;10.32;;;4.28;;
1412;SDS011;701;52.526;13.408;2023-02-28T17:33:52;12.45;;;4.25;;
1412;SDS011;701;52.526;13.408;2023-02-28T17:36:23;13.00;;;3.30;;
1412;SDS011;701;52.526;13.408;2023-02-28T17:38:51;10.57;;;3.88;;
1412;SDS011;701;52.526;13.408;2023-02-28T17:41:18;10.38;;;3.78;;
1412;SDS011;701;52.526;13.408;2023-02-28T17:43:44;19.55;;;8.68;;
1412;SDS011;701;52.526;13.408;2023-02-28T17:46:17;9.68;;;3.75;;
1412;SDS011;701;52.526;13.408;2023-02-28T17:48:48;11.32;;;3.97;;
1412;SDS011;701;52.526;13.408;2023-02-28T17:51:15;11.02;;;4.20;;
1412;SDS011;701;52.526;13.408;2023-02-28T17:53:42;12.20;;;4.18;;
1412;SDS011;701;52.526;13.408;2023-02-28T17:56:10;12.65;;;3.67;;
1412;SDS011;701;52.526;13.408;2023-02-28T17:58:38;13.20;;;4.97;;
1412;SDS011;701;52.526;13.408;2023-02-28T18:01:04;12.05;;;4.57;;
1412;SDS011;701;52.526;13.408;2023-02-28T18:03:30;17.35;;;5.10;;
1412;SDS011;701;52.526;13.408;2023-02-28T18:05:57;11.13;;;4.40;;
1412;SDS011;701;52.526;13.408;2023-02-28T18:08:23;11.33;;;4.20;;
1412;SDS011;701;52.526;13.408;2023-02-28T18:10:49;10.48;;;4.40;;